createdAt,value
2022-10-29T00:01:54.232Z,10.40
2022-10-29T00:04:20.541Z,10.70
2022-10-29T00:06:47.886Z,10.15
2022-10-29T00:09:14.379Z,10.40
2022-10-29T00:11:40.653Z,10.30
2022-10-29T00:14:06.939Z,10.82
2022-10-29T00:16:37.849Z,11.55
2022-10-29T00:19:04.319Z,10.93
2022-10-29T00:21:30.927Z,12.20
2022-10-29T00:23:58.051Z,11.57
2022-10-29T00:26:24.722Z,10.52
2022-10-29T00:28:54.689Z,11.20
2022-10-29T00:31:24.182Z,10.95
2022-10-29T00:33:50.973Z,10.77
2022-10-29T00:36:24.439Z,10.95
2022-10-29T00:38:50.997Z,11.60
2022-10-29T00:41:21.670Z,11.05
2022-10-29T00:43:49.720Z,11.30
2022-10-29T00:46:18.310Z,11.52
2022-10-29T00:48:49.899Z,11.27
2022-10-29T00:51:16.580Z,11.30
2022-10-29T00:53:51.652Z,10.40
2022-10-29T00:56:18.115Z,10.95
2022-10-29T00:58:44.767Z,10.50
2022-10-29T01:01:11.247Z,10.85
2022-10-29T01:03:38.528Z,11.05
2022-10-29T01:06:05.178Z,10.98
2022-10-29T01:08:31.471Z,10.30
2022-10-29T01:11:03.914Z,9.90
2022-10-29T01:13:43.357Z,10.70
2022-10-29T01:16:28.292Z,10.80
2022-10-29T01:19:13.459Z,10.13
2022-10-29T01:21:47.883Z,9.73
2022-10-29T01:24:25.067Z,11.18
2022-10-29T01:26:58.759Z,10.27
2022-10-29T01:29:34.220Z,11.13
2022-10-29T01:32:04.157Z,10.50
2022-10-29T01:34:39.171Z,10.38
2022-10-29T01:37:25.292Z,11.25
2022-10-29T01:39:54.611Z,11.25
2022-10-29T01:42:38.734Z,11.55
2022-10-29T01:45:12.955Z,9.95
2022-10-29T01:47:45.317Z,10.68
2022-10-29T01:50:13.727Z,10.20
2022-10-29T01:52:40.245Z,10.50
2022-10-29T01:55:06.855Z,11.02
2022-10-29T01:57:34.346Z,11.05
2022-10-29T02:00:02.851Z,11.48
2022-10-29T02:02:48.559Z,10.75
2022-10-29T02:05:31.830Z,11.15
2022-10-29T02:08:18.942Z,11.68
2022-10-29T02:10:50.932Z,11.40
2022-10-29T02:13:18.940Z,11.02
2022-10-29T02:15:48.247Z,11.85
2022-10-29T02:18:15.248Z,12.13
2022-10-29T02:20:42.479Z,11.82
2022-10-29T02:23:09.044Z,11.85
2022-10-29T02:25:35.378Z,11.07
2022-10-29T02:28:01.836Z,11.32
2022-10-29T02:30:28.150Z,11.38
2022-10-29T02:32:54.827Z,11.05
2022-10-29T02:35:21.382Z,11.15
2022-10-29T02:37:47.766Z,11.63
2022-10-29T02:40:14.098Z,11.20
2022-10-29T02:42:40.443Z,10.88
2022-10-29T02:45:06.833Z,11.57
2022-10-29T02:47:33.336Z,11.48
2022-10-29T02:49:59.627Z,12.00
2022-10-29T02:52:25.886Z,12.30
2022-10-29T02:54:52.157Z,11.48
2022-10-29T02:57:18.402Z,12.05
2022-10-29T02:59:44.688Z,11.95
2022-10-29T03:02:11.070Z,11.77
2022-10-29T03:04:39.363Z,13.40
2022-10-29T03:07:05.727Z,10.80
2022-10-29T03:09:32.031Z,10.40
2022-10-29T03:11:58.363Z,11.23
2022-10-29T03:14:24.673Z,10.63
2022-10-29T03:16:50.943Z,11.02
2022-10-29T03:19:17.234Z,10.32
2022-10-29T03:21:43.507Z,10.45
2022-10-29T03:24:09.805Z,11.60
2022-10-29T03:26:36.127Z,11.18
2022-10-29T03:29:02.563Z,10.45
2022-10-29T03:31:28.905Z,11.32
2022-10-29T03:33:55.204Z,11.63
2022-10-29T03:36:21.576Z,11.63
2022-10-29T03:38:47.873Z,11.50
2022-10-29T03:41:14.201Z,12.00
2022-10-29T03:43:40.497Z,11.93
2022-10-29T03:46:07.058Z,11.60
2022-10-29T03:48:33.934Z,12.18
2022-10-29T03:51:01.511Z,12.00
2022-10-29T03:53:28.274Z,12.35
2022-10-29T03:55:55.210Z,12.32
2022-10-29T03:58:21.546Z,12.27
2022-10-29T04:00:58.296Z,11.57
2022-10-29T04:03:25.162Z,11.07
2022-10-29T04:05:51.487Z,11.55
2022-10-29T04:08:17.767Z,12.13
2022-10-29T04:10:47.663Z,10.88
2022-10-29T04:13:14.277Z,12.00
2022-10-29T04:15:40.746Z,11.40
2022-10-29T04:18:07.072Z,11.13
2022-10-29T04:21:29.243Z,11.52
2022-10-29T04:28:17.967Z,11.98
2022-10-29T04:28:52.732Z,11.73
2022-10-29T04:31:19.064Z,11.35
2022-10-29T04:33:46.067Z,11.70
2022-10-29T04:36:12.486Z,11.43
2022-10-29T04:38:39.068Z,12.07
2022-10-29T04:41:05.513Z,12.35
2022-10-29T04:43:31.828Z,11.30
2022-10-29T04:45:58.735Z,11.20
2022-10-29T04:48:25.888Z,11.60
2022-10-29T04:50:52.206Z,11.10
2022-10-29T04:53:18.711Z,9.85
2022-10-29T04:55:45.351Z,10.07
2022-10-29T04:58:16.171Z,11.27
2022-10-29T05:00:42.697Z,9.90
2022-10-29T05:03:09.176Z,10.88
2022-10-29T05:05:36.427Z,11.82
2022-10-29T05:08:03.432Z,11.15
2022-10-29T05:10:31.176Z,10.32
2022-10-29T05:13:01.667Z,10.30
2022-10-29T05:15:28.292Z,10.15
2022-10-29T05:17:55.423Z,10.90
2022-10-29T05:20:22.503Z,10.95
2022-10-29T05:22:48.853Z,11.68
2022-10-29T05:25:15.421Z,10.70
2022-10-29T05:27:41.728Z,11.10
2022-10-29T05:30:08.426Z,10.98
2022-10-29T05:35:02.255Z,12.25
2022-10-29T05:37:28.540Z,11.95
2022-10-29T05:39:54.795Z,10.50
2022-10-29T05:42:21.116Z,11.82
2022-10-29T05:44:47.392Z,11.00
2022-10-29T05:47:13.646Z,11.10
2022-10-29T05:49:39.991Z,9.75
2022-10-29T05:52:06.301Z,9.38
2022-10-29T05:54:32.615Z,9.43
2022-10-29T05:56:59.067Z,10.07
2022-10-29T05:59:28.558Z,11.10
2022-10-29T06:01:57.385Z,10.43
2022-10-29T06:04:23.784Z,10.40
2022-10-29T06:06:50.118Z,10.57
2022-10-29T06:09:16.391Z,10.43
2022-10-29T06:11:42.647Z,10.40
2022-10-29T06:14:08.907Z,10.63
2022-10-29T06:16:35.181Z,9.98
2022-10-29T06:19:01.511Z,10.32
2022-10-29T06:21:27.779Z,10.25
2022-10-29T06:23:55.655Z,10.25
2022-10-29T06:26:22.645Z,10.10
2022-10-29T06:28:48.927Z,9.77
2022-10-29T06:31:15.186Z,10.55
2022-10-29T06:33:41.568Z,10.85
2022-10-29T06:36:07.979Z,10.77
2022-10-29T06:38:34.310Z,10.35
2022-10-29T06:41:00.591Z,11.15
2022-10-29T06:43:26.947Z,11.65
2022-10-29T06:45:53.219Z,11.07
2022-10-29T06:48:22.376Z,11.45
2022-10-29T06:50:49.407Z,10.98
2022-10-29T06:53:16.107Z,11.93
2022-10-29T06:55:42.369Z,12.55
2022-10-29T06:58:13.034Z,12.32
2022-10-29T07:00:39.931Z,12.25
2022-10-29T07:03:07.231Z,12.30
2022-10-29T07:05:33.949Z,12.90
2022-10-29T07:08:01.460Z,12.43
2022-10-29T07:10:29.507Z,12.45
2022-10-29T07:12:55.786Z,13.25
2022-10-29T07:15:25.739Z,13.43
2022-10-29T07:18:07.207Z,13.77
2022-10-29T07:20:35.130Z,13.15
2022-10-29T07:23:01.702Z,12.95
2022-10-29T07:25:28.829Z,15.05
2022-10-29T07:27:55.896Z,14.73
2022-10-29T07:30:22.502Z,13.57
2022-10-29T07:32:48.824Z,13.93
2022-10-29T07:35:15.150Z,15.07
2022-10-29T07:37:41.419Z,15.13
2022-10-29T07:40:08.030Z,14.48
2022-10-29T07:42:34.363Z,13.63
2022-10-29T07:45:00.633Z,12.80
2022-10-29T07:47:26.901Z,12.23
2022-10-29T07:49:53.195Z,12.25
2022-10-29T07:52:19.466Z,12.20
2022-10-29T07:54:45.770Z,11.32
2022-10-29T07:57:12.099Z,11.32
2022-10-29T07:59:38.456Z,12.25
2022-10-29T08:02:04.734Z,11.60
2022-10-29T08:04:31.059Z,12.02
2022-10-29T08:06:57.323Z,12.15
2022-10-29T08:09:23.622Z,11.75
2022-10-29T08:11:49.869Z,11.45
2022-10-29T08:14:18.921Z,10.77
2022-10-29T08:16:46.659Z,11.13
2022-10-29T08:19:13.085Z,11.95
2022-10-29T08:21:39.350Z,11.70
2022-10-29T08:24:05.819Z,11.30
2022-10-29T08:26:33.091Z,11.57
2022-10-29T08:28:59.374Z,11.48
2022-10-29T08:31:25.644Z,11.55
2022-10-29T08:33:51.930Z,11.20
2022-10-29T08:36:18.305Z,11.93
2022-10-29T08:38:46.472Z,12.07
2022-10-29T08:41:12.727Z,11.40
2022-10-29T08:43:48.217Z,12.13
2022-10-29T08:46:29.268Z,11.43
2022-10-29T08:49:03.159Z,11.60
2022-10-29T08:51:36.635Z,10.85
2022-10-29T08:56:51.459Z,11.13
2022-10-29T08:59:20.176Z,12.23
2022-10-29T09:01:46.992Z,11.52
2022-10-29T09:04:33.684Z,11.93
2022-10-29T09:07:25.484Z,11.20
2022-10-29T09:09:56.880Z,10.77
2022-10-29T09:12:23.110Z,11.45
2022-10-29T09:15:08.243Z,11.55
2022-10-29T09:17:44.907Z,11.40
2022-10-29T09:20:30.128Z,11.23
2022-10-29T09:22:59.421Z,11.48
2022-10-29T09:25:38.976Z,10.32
2022-10-29T09:28:11.271Z,10.30
2022-10-29T09:30:48.430Z,10.23
2022-10-29T09:33:16.817Z,10.65
2022-10-29T09:35:53.560Z,9.00
2022-10-29T09:38:25.086Z,9.90
2022-10-29T09:40:51.462Z,8.98
2022-10-29T09:43:33.960Z,9.18
2022-10-29T09:46:19.144Z,9.20
2022-10-29T09:48:45.391Z,9.57
2022-10-29T09:51:11.632Z,9.00
2022-10-29T09:53:37.956Z,9.30
2022-10-29T09:56:07.125Z,9.30
2022-10-29T09:58:36.491Z,9.40
2022-10-29T10:01:02.851Z,9.88
2022-10-29T10:03:32.834Z,10.07
2022-10-29T10:06:03.805Z,10.10
2022-10-29T10:08:30.418Z,9.25
2022-10-29T10:10:58.919Z,9.18
2022-10-29T10:13:27.800Z,8.55
2022-10-29T10:15:55.755Z,9.30
2022-10-29T10:21:08.601Z,8.98
2022-10-29T10:23:34.856Z,9.20
2022-10-29T10:26:04.011Z,8.93
2022-10-29T10:28:34.575Z,8.90
2022-10-29T10:31:04.145Z,8.90
2022-10-29T10:33:31.354Z,8.32
2022-10-29T10:36:08.158Z,8.52
2022-10-29T10:39:01.014Z,8.82
2022-10-29T10:41:28.847Z,8.80
2022-10-29T10:44:00.787Z,9.45
2022-10-29T10:46:41.626Z,9.27
2022-10-29T10:49:10.885Z,9.52
2022-10-29T10:51:38.201Z,8.40
2022-10-29T10:54:20.823Z,8.85
2022-10-29T10:57:07.404Z,7.85
2022-10-29T10:59:52.122Z,7.45
2022-10-29T11:02:30.764Z,7.55
2022-10-29T11:05:09.467Z,8.13
2022-10-29T11:07:39.043Z,7.88
2022-10-29T11:10:06.996Z,7.68
2022-10-29T11:12:36.196Z,7.82
2022-10-29T11:15:11.829Z,7.72
2022-10-29T11:17:54.290Z,7.20
2022-10-29T11:20:26.465Z,8.68
2022-10-29T11:23:11.704Z,9.20
2022-10-29T11:25:41.414Z,10.18
2022-10-29T11:28:07.718Z,10.20
2022-10-29T11:30:38.561Z,10.75
2022-10-29T11:33:21.959Z,10.52
2022-10-29T11:36:01.788Z,11.25
2022-10-29T11:38:40.855Z,10.20
2022-10-29T11:41:07.149Z,10.00
2022-10-29T11:43:33.703Z,10.77
2022-10-29T11:46:12.330Z,10.27
2022-10-29T11:48:54.000Z,10.07
2022-10-29T11:51:31.118Z,10.23
2022-10-29T11:53:57.470Z,10.90
2022-10-29T11:56:36.381Z,10.55
2022-10-29T11:59:07.418Z,10.82
2022-10-29T12:01:43.400Z,11.98
2022-10-29T12:04:21.139Z,11.40
2022-10-29T12:07:01.579Z,11.63
2022-10-29T12:09:27.842Z,11.20
2022-10-29T12:11:54.103Z,11.02
2022-10-29T12:14:29.875Z,10.85
2022-10-29T12:17:01.965Z,11.02
2022-10-29T12:19:35.582Z,11.70
2022-10-29T12:22:12.059Z,11.43
2022-10-29T12:24:41.408Z,10.52
2022-10-29T12:27:15.578Z,11.15
2022-10-29T12:32:17.172Z,11.20
2022-10-29T12:34:53.802Z,11.40
2022-10-29T12:37:25.803Z,12.77
2022-10-29T12:40:00.619Z,11.63
2022-10-29T12:42:27.986Z,10.82
2022-10-29T12:45:00.391Z,11.05
2022-10-29T12:47:33.583Z,9.95
2022-10-29T12:50:18.979Z,10.30
2022-10-29T12:53:00.669Z,10.18
2022-10-29T12:55:27.369Z,9.55
2022-10-29T12:57:53.643Z,9.88
2022-10-29T13:00:22.943Z,9.32
2022-10-29T13:02:53.431Z,10.10
2022-10-29T13:05:38.662Z,8.95
2022-10-29T13:08:04.955Z,9.32
2022-10-29T13:10:34.252Z,8.07
2022-10-29T13:13:15.804Z,8.38
2022-10-29T13:15:47.999Z,8.23
2022-10-29T13:18:14.260Z,9.05
2022-10-29T13:20:41.571Z,10.18
2022-10-29T13:23:37.773Z,10.50
2022-10-29T13:26:05.110Z,9.88
2022-10-29T13:28:37.454Z,9.77
2022-10-29T13:31:03.691Z,9.77
2022-10-29T13:33:30.003Z,9.45
2022-10-29T13:35:56.263Z,9.98
2022-10-29T13:38:51.939Z,8.52
2022-10-29T13:41:29.261Z,7.93
2022-10-29T13:44:00.630Z,7.88
2022-10-29T13:46:31.326Z,7.45
2022-10-29T13:48:59.295Z,7.97
2022-10-29T13:51:39.184Z,8.30
2022-10-29T13:54:15.918Z,8.35
2022-10-29T13:56:58.964Z,7.75
2022-10-29T13:59:28.496Z,7.90
2022-10-29T14:02:00.253Z,8.68
2022-10-29T14:04:38.707Z,9.70
2022-10-29T14:07:11.309Z,9.25
2022-10-29T14:09:57.852Z,9.60
2022-10-29T14:12:27.096Z,8.70
2022-10-29T14:15:05.967Z,8.40
2022-10-29T14:17:32.468Z,8.55
2022-10-29T14:19:58.925Z,8.60
2022-10-29T14:22:30.197Z,8.93
2022-10-29T14:24:56.829Z,8.70
2022-10-29T14:27:23.370Z,8.00
2022-10-29T14:29:53.036Z,7.68
2022-10-29T14:32:22.551Z,7.55
2022-10-29T14:34:49.784Z,7.57
2022-10-29T14:37:19.178Z,7.50
2022-10-29T14:39:57.980Z,6.72
2022-10-29T14:42:32.535Z,7.30
2022-10-29T14:45:01.423Z,6.40
2022-10-29T14:47:33.265Z,6.75
2022-10-29T14:50:03.564Z,6.60
2022-10-29T14:52:32.256Z,6.85
2022-10-29T14:55:00.597Z,6.70
2022-10-29T14:57:29.284Z,7.13
2022-10-29T14:59:58.720Z,6.68
2022-10-29T15:02:43.096Z,6.38
2022-10-29T15:07:36.006Z,7.00
2022-10-29T15:10:22.694Z,6.75
2022-10-29T15:12:49.889Z,7.95
2022-10-29T15:15:22.313Z,7.50
2022-10-29T15:18:06.066Z,7.50
2022-10-29T15:20:36.839Z,7.03
2022-10-29T15:23:03.350Z,7.05
2022-10-29T15:25:29.601Z,6.55
2022-10-29T15:27:56.245Z,7.13
2022-10-29T15:30:28.130Z,6.80
2022-10-29T15:32:58.063Z,6.40
2022-10-29T15:35:24.816Z,5.68
2022-10-29T15:37:51.599Z,6.28
2022-10-29T15:40:19.122Z,6.13
2022-10-29T15:42:45.691Z,6.18
2022-10-29T15:47:40.324Z,6.22
2022-10-29T15:50:09.212Z,7.53
2022-10-29T15:52:43.938Z,6.55
2022-10-29T15:55:26.091Z,6.40
2022-10-29T15:57:53.959Z,7.68
2022-10-29T16:00:22.117Z,8.27
2022-10-29T16:02:49.161Z,8.07
2022-10-29T16:05:15.681Z,8.23
2022-10-29T16:07:42.795Z,8.30
2022-10-29T16:10:20.063Z,8.80
2022-10-29T16:12:48.451Z,8.38
2022-10-29T16:15:15.678Z,9.52
2022-10-29T16:17:42.282Z,9.30
2022-10-29T16:20:11.970Z,8.15
2022-10-29T16:22:38.252Z,8.15
2022-10-29T16:25:04.732Z,8.50
2022-10-29T16:27:31.060Z,7.65
2022-10-29T16:29:57.370Z,8.70
2022-10-29T16:32:24.232Z,7.80
2022-10-29T16:34:52.027Z,8.35
2022-10-29T16:37:19.332Z,8.80
2022-10-29T16:39:45.623Z,9.52
2022-10-29T16:42:27.747Z,9.05
2022-10-29T16:44:54.068Z,9.15
2022-10-29T16:47:20.364Z,9.00
2022-10-29T16:49:46.782Z,8.60
2022-10-29T16:52:17.407Z,9.10
2022-10-29T16:54:48.193Z,8.27
2022-10-29T16:57:14.548Z,8.50
2022-10-29T16:59:40.865Z,9.82
2022-10-29T17:02:07.234Z,8.85
2022-10-29T17:04:33.563Z,7.85
2022-10-29T17:07:00.038Z,7.18
2022-10-29T17:09:26.397Z,8.88
2022-10-29T17:11:52.679Z,8.25
2022-10-29T17:14:19.008Z,8.93
2022-10-29T17:16:45.278Z,8.77
2022-10-29T17:19:11.568Z,8.35
2022-10-29T17:21:37.835Z,8.65
2022-10-29T17:24:07.708Z,8.63
2022-10-29T17:26:34.519Z,9.00
2022-10-29T17:29:00.810Z,7.95
2022-10-29T17:31:27.202Z,8.68
2022-10-29T17:33:53.493Z,9.27
2022-10-29T17:36:19.949Z,8.73
2022-10-29T17:38:46.594Z,9.45
2022-10-29T17:41:12.904Z,10.13
2022-10-29T17:43:39.172Z,9.30
2022-10-29T17:46:05.446Z,9.77
2022-10-29T17:48:31.943Z,9.27
2022-10-29T17:50:59.378Z,8.18
2022-10-29T17:53:26.275Z,9.35
2022-10-29T17:55:52.599Z,12.18
2022-10-29T17:58:19.811Z,18.33
2022-10-29T18:00:46.386Z,17.30
2022-10-29T18:03:12.686Z,12.73
2022-10-29T18:05:39.011Z,11.68
2022-10-29T18:08:05.259Z,9.75
2022-10-29T18:10:32.433Z,9.43
2022-10-29T18:12:58.712Z,10.52
2022-10-29T18:15:25.003Z,11.95
2022-10-29T18:20:22.546Z,13.13
2022-10-29T18:22:53.256Z,13.70
2022-10-29T18:25:22.044Z,12.50
2022-10-29T18:27:48.440Z,12.15
2022-10-29T18:30:16.020Z,11.73
2022-10-29T18:32:42.348Z,10.73
2022-10-29T18:35:08.962Z,11.77
2022-10-29T18:37:35.231Z,11.70
2022-10-29T18:40:01.515Z,11.55
2022-10-29T18:42:29.751Z,11.38
2022-10-29T18:44:56.024Z,11.02
2022-10-29T18:47:22.306Z,10.85
2022-10-29T18:49:48.623Z,11.10
2022-10-29T18:52:14.963Z,10.30
2022-10-29T18:54:41.321Z,9.93
2022-10-29T18:57:07.699Z,10.85
2022-10-29T18:59:33.991Z,10.88
2022-10-29T19:02:00.437Z,11.77
2022-10-29T19:04:26.812Z,12.48
2022-10-29T19:06:53.802Z,11.30
2022-10-29T19:09:20.378Z,12.98
2022-10-29T19:11:51.668Z,11.20
2022-10-29T19:14:20.078Z,12.15
2022-10-29T19:16:46.419Z,11.15
2022-10-29T19:19:14.414Z,11.38
2022-10-29T19:21:42.961Z,10.93
2022-10-29T19:24:12.623Z,10.52
2022-10-29T19:26:38.917Z,10.50
2022-10-29T19:29:06.217Z,11.18
2022-10-29T19:31:33.328Z,10.73
2022-10-29T19:34:00.624Z,11.52
2022-10-29T19:36:27.824Z,11.13
2022-10-29T19:38:54.761Z,10.52
2022-10-29T19:41:21.107Z,10.27
2022-10-29T19:43:47.538Z,10.43
2022-10-29T19:46:17.995Z,10.32
2022-10-29T19:48:48.390Z,9.77
2022-10-29T19:51:14.668Z,10.30
2022-10-29T19:53:40.987Z,10.88
2022-10-29T19:56:10.182Z,10.00
2022-10-29T19:58:36.579Z,9.73
2022-10-29T20:01:04.791Z,9.25
2022-10-29T20:03:31.103Z,9.57
2022-10-29T20:05:57.393Z,9.60
2022-10-29T20:08:23.880Z,9.38
2022-10-29T20:10:56.632Z,10.38
2022-10-29T20:13:22.935Z,9.48
2022-10-29T20:15:49.304Z,9.45
2022-10-29T20:18:15.605Z,9.10
2022-10-29T20:20:42.379Z,9.00
2022-10-29T20:23:08.661Z,8.75
2022-10-29T20:25:34.934Z,9.02
2022-10-29T20:28:04.143Z,8.63
2022-10-29T20:30:30.621Z,8.57
2022-10-29T20:32:57.334Z,9.35
2022-10-29T20:35:23.778Z,9.52
2022-10-29T20:37:50.157Z,9.75
2022-10-29T20:40:16.427Z,11.93
2022-10-29T20:42:42.773Z,11.07
2022-10-29T20:45:09.134Z,11.38
2022-10-29T20:47:35.491Z,10.43
2022-10-29T20:50:01.869Z,11.10
2022-10-29T20:52:30.269Z,10.95
2022-10-29T20:54:56.572Z,10.00
2022-10-29T20:57:22.907Z,10.68
2022-10-29T20:59:49.201Z,10.00
2022-10-29T21:02:15.684Z,8.35
2022-10-29T21:04:42.098Z,9.55
2022-10-29T21:07:08.452Z,9.35
2022-10-29T21:09:34.786Z,10.18
2022-10-29T21:12:01.100Z,10.18
2022-10-29T21:14:29.096Z,9.98
2022-10-29T21:16:55.379Z,10.68
2022-10-29T21:19:22.716Z,10.70
2022-10-29T21:21:49.086Z,10.82
2022-10-29T21:24:15.403Z,9.90
2022-10-29T21:26:41.683Z,9.05
2022-10-29T21:29:07.947Z,8.43
2022-10-29T21:31:34.416Z,8.68
2022-10-29T21:34:00.683Z,8.82
2022-10-29T21:36:27.003Z,8.75
2022-10-29T21:38:53.267Z,8.63
2022-10-29T21:41:19.569Z,8.90
2022-10-29T21:43:45.887Z,8.52
2022-10-29T21:46:12.266Z,9.18
2022-10-29T21:48:38.583Z,9.75
2022-10-29T21:51:10.033Z,9.40
2022-10-29T21:53:36.313Z,8.55
2022-10-29T21:56:04.139Z,8.50
2022-10-29T21:58:30.722Z,8.65
2022-10-29T22:01:06.244Z,8.38
2022-10-29T22:03:33.638Z,8.93
2022-10-29T22:06:17.780Z,8.65
2022-10-29T22:08:44.557Z,8.55
2022-10-29T22:11:11.292Z,8.45
2022-10-29T22:13:37.856Z,7.93
2022-10-29T22:16:04.688Z,8.88
2022-10-29T22:18:31.454Z,8.55
2022-10-29T22:21:03.864Z,7.72
2022-10-29T22:23:30.203Z,7.65
2022-10-29T22:25:56.456Z,8.55
2022-10-29T22:28:22.802Z,8.65
2022-10-29T22:30:49.094Z,8.65
2022-10-29T22:33:15.607Z,8.73
2022-10-29T22:35:41.890Z,8.18
2022-10-29T22:38:08.151Z,8.95
2022-10-29T22:40:40.263Z,8.73
2022-10-29T22:43:06.510Z,7.93
2022-10-29T22:45:32.786Z,8.70
2022-10-29T22:47:59.083Z,9.18
2022-10-29T22:50:25.352Z,7.90
2022-10-29T22:52:51.660Z,8.43
2022-10-29T22:55:18.003Z,8.38
2022-10-29T22:57:44.292Z,8.55
2022-10-29T23:00:10.880Z,8.10
2022-10-29T23:02:37.242Z,8.95
2022-10-29T23:05:03.702Z,8.73
2022-10-29T23:07:29.989Z,9.35
2022-10-29T23:09:56.288Z,9.05
2022-10-29T23:12:22.624Z,8.35
2022-10-29T23:14:48.920Z,9.45
2022-10-29T23:17:21.117Z,8.88
2022-10-29T23:19:47.449Z,9.52
2022-10-29T23:24:39.960Z,9.75
2022-10-29T23:27:06.284Z,9.90
2022-10-29T23:29:32.541Z,9.55
2022-10-29T23:31:58.814Z,9.43
2022-10-29T23:34:25.093Z,8.68
2022-10-29T23:39:18.598Z,10.35
2022-10-29T23:41:44.878Z,9.68
2022-10-29T23:44:11.158Z,10.30
2022-10-29T23:46:37.508Z,10.40
2022-10-29T23:49:03.766Z,10.25
2022-10-29T23:51:30.231Z,10.82
2022-10-29T23:53:57.691Z,10.77
2022-10-29T23:56:24.255Z,11.50
2022-10-29T23:58:50.608Z,11.75
